createdAt,value
2024-05-09T00:02:20.786Z,84.21
2024-05-09T00:04:53.390Z,84.33
2024-05-09T00:07:23.406Z,83.51
2024-05-09T00:09:53.225Z,82.85
2024-05-09T00:12:23.185Z,82.96
2024-05-09T00:14:53.071Z,82.54
2024-05-09T00:17:23.089Z,82.14
2024-05-09T00:19:55.654Z,81.76
2024-05-09T00:22:25.524Z,81.61
2024-05-09T00:24:55.337Z,81.47
2024-05-09T00:27:25.447Z,81.10
2024-05-09T00:29:55.277Z,80.95
2024-05-09T00:32:25.266Z,80.45
2024-05-09T00:34:57.946Z,80.98
2024-05-09T00:37:27.782Z,80.29
2024-05-09T00:39:57.553Z,79.53
2024-05-09T00:42:27.330Z,79.24
2024-05-09T00:44:57.099Z,78.78
2024-05-09T00:47:27.470Z,77.71
2024-05-09T00:50:00.049Z,77.16
2024-05-09T00:52:31.127Z,76.80
2024-05-09T00:55:01.193Z,76.74
2024-05-09T00:57:31.292Z,76.39
2024-05-09T01:00:02.295Z,75.53
2024-05-09T01:02:32.694Z,74.87
2024-05-09T01:05:06.266Z,74.94
2024-05-09T01:07:36.237Z,74.86
2024-05-09T01:10:11.723Z,74.51
2024-05-09T01:12:47.148Z,74.54
2024-05-09T01:15:17.459Z,73.84
2024-05-09T01:17:48.364Z,74.38
2024-05-09T01:20:31.629Z,75.33
2024-05-09T01:23:15.541Z,75.58
2024-05-09T01:25:47.274Z,75.76
2024-05-09T01:28:18.082Z,76.66
2024-05-09T01:30:48.024Z,77.06
2024-05-09T01:33:18.118Z,78.24
2024-05-09T01:35:51.114Z,78.76
2024-05-09T01:38:23.882Z,79.05
2024-05-09T01:40:55.894Z,79.39
2024-05-09T01:43:25.976Z,80.21
2024-05-09T01:45:56.084Z,79.72
2024-05-09T01:48:30.701Z,79.43
2024-05-09T01:51:01.126Z,79.89
2024-05-09T01:53:34.196Z,79.79
2024-05-09T01:56:04.775Z,80.48
2024-05-09T01:58:34.834Z,81.04
2024-05-09T02:01:05.871Z,80.89
2024-05-09T02:03:35.924Z,80.06
2024-05-09T02:06:06.785Z,80.24
2024-05-09T02:08:39.740Z,80.43
2024-05-09T02:11:11.443Z,81.09
2024-05-09T02:13:44.255Z,80.78
2024-05-09T02:16:15.615Z,81.15
2024-05-09T02:18:45.772Z,81.53
2024-05-09T02:21:16.026Z,81.98
2024-05-09T02:23:48.744Z,81.53
2024-05-09T02:26:19.914Z,81.92
2024-05-09T02:28:50.031Z,81.86
2024-05-09T02:31:20.067Z,81.58
2024-05-09T02:33:50.345Z,81.73
2024-05-09T02:36:20.578Z,82.21
2024-05-09T02:38:51.257Z,82.19
2024-05-09T02:41:21.369Z,81.40
2024-05-09T02:43:48.680Z,81.95
2024-05-09T02:46:18.658Z,82.65
2024-05-09T02:48:46.309Z,83.00
2024-05-09T02:51:20.253Z,83.03
2024-05-09T02:53:47.443Z,83.30
2024-05-09T02:56:20.363Z,82.98
2024-05-09T02:58:47.618Z,83.24
2024-05-09T03:01:20.326Z,83.18
2024-05-09T03:03:48.657Z,83.57
2024-05-09T03:06:18.726Z,83.26
2024-05-09T03:08:46.060Z,83.50
2024-05-09T03:11:28.730Z,83.69
2024-05-09T03:13:56.102Z,84.34
2024-05-09T03:16:26.384Z,84.54
2024-05-09T03:18:54.818Z,83.81
2024-05-09T03:21:24.807Z,83.06
2024-05-09T03:23:52.133Z,84.30
2024-05-09T03:26:22.605Z,84.46
2024-05-09T03:28:53.355Z,85.09
2024-05-09T03:31:23.476Z,84.50
2024-05-09T03:33:50.978Z,84.14
2024-05-09T03:36:27.343Z,85.34
2024-05-09T03:38:57.279Z,85.06
2024-05-09T03:41:31.476Z,85.22
2024-05-09T03:44:04.668Z,84.89
2024-05-09T03:46:34.657Z,84.77
2024-05-09T03:49:02.164Z,84.89
2024-05-09T03:51:34.951Z,84.68
2024-05-09T03:54:02.317Z,84.63
2024-05-09T03:56:32.421Z,84.45
2024-05-09T03:59:05.682Z,84.31
2024-05-09T04:01:36.075Z,84.47
2024-05-09T04:04:05.701Z,84.62
2024-05-09T04:06:36.469Z,84.46
2024-05-09T04:09:05.193Z,85.43
2024-05-09T04:11:35.952Z,86.36
2024-05-09T04:14:06.311Z,85.59
2024-05-09T04:16:36.363Z,85.80
2024-05-09T04:19:03.801Z,85.19
2024-05-09T04:21:36.551Z,84.46
2024-05-09T04:24:04.337Z,84.22
2024-05-09T04:26:34.493Z,83.56
2024-05-09T04:29:02.146Z,82.66
2024-05-09T04:31:39.160Z,82.58
2024-05-09T04:34:06.591Z,83.00
2024-05-09T04:36:36.687Z,83.18
2024-05-09T04:39:04.037Z,83.07
2024-05-09T04:41:33.977Z,81.72
2024-05-09T04:44:01.705Z,81.56
2024-05-09T04:46:31.654Z,80.76
2024-05-09T04:49:01.680Z,80.34
2024-05-09T04:51:32.565Z,79.85
2024-05-09T04:53:59.922Z,78.69
2024-05-09T04:56:30.242Z,79.02
2024-05-09T04:58:57.671Z,78.73
2024-05-09T05:01:27.985Z,78.26
2024-05-09T05:03:57.766Z,77.76
2024-05-09T05:06:30.921Z,76.62
2024-05-09T05:08:58.259Z,76.70
2024-05-09T05:11:28.393Z,76.16
2024-05-09T05:13:56.038Z,75.82
2024-05-09T05:16:26.259Z,75.57
2024-05-09T05:18:56.305Z,74.57
2024-05-09T05:21:26.403Z,74.95
2024-05-09T05:23:56.726Z,74.35
2024-05-09T05:26:27.743Z,73.15
2024-05-09T05:28:55.219Z,73.05
2024-05-09T05:31:29.456Z,72.08
2024-05-09T05:33:57.368Z,71.50
2024-05-09T05:36:27.564Z,71.05
2024-05-09T05:38:57.592Z,70.79
2024-05-09T05:41:28.457Z,69.28
2024-05-09T05:43:56.019Z,69.50
2024-05-09T05:46:26.210Z,68.48
2024-05-09T05:48:53.955Z,68.03
2024-05-09T05:51:24.506Z,66.90
2024-05-09T05:53:51.777Z,66.74
2024-05-09T05:56:28.738Z,66.46
2024-05-09T05:58:56.367Z,64.86
2024-05-09T06:01:26.769Z,63.88
2024-05-09T06:03:54.298Z,64.13
2024-05-09T06:06:24.380Z,63.02
2024-05-09T06:08:52.708Z,61.33
2024-05-09T06:11:25.419Z,61.59
2024-05-09T06:13:52.764Z,61.89
2024-05-09T06:16:23.199Z,58.97
2024-05-09T06:18:51.115Z,58.47
2024-05-09T06:21:23.919Z,59.28
2024-05-09T06:23:51.376Z,56.56
2024-05-09T06:26:24.518Z,58.23
2024-05-09T06:28:54.534Z,56.80
2024-05-09T06:31:24.726Z,56.38
2024-05-09T06:33:52.379Z,56.51
2024-05-09T06:36:22.667Z,54.74
2024-05-09T06:38:50.327Z,54.39
2024-05-09T06:41:20.432Z,53.05
2024-05-09T06:43:47.825Z,52.06
2024-05-09T06:46:21.450Z,50.76
2024-05-09T06:48:49.467Z,50.81
2024-05-09T06:51:28.396Z,50.25
2024-05-09T06:53:55.798Z,50.25
2024-05-09T06:56:25.915Z,51.24
2024-05-09T06:58:54.544Z,51.20
2024-05-09T07:01:27.566Z,51.02
2024-05-09T07:03:57.926Z,47.73
2024-05-09T07:06:27.528Z,47.33
2024-05-09T07:08:57.390Z,46.69
2024-05-09T07:11:31.599Z,46.72
2024-05-09T07:14:00.600Z,45.35
2024-05-09T07:16:33.784Z,45.67
2024-05-09T07:19:01.731Z,44.60
2024-05-09T07:21:32.425Z,44.82
2024-05-09T07:24:03.223Z,42.76
2024-05-09T07:26:34.088Z,42.72
2024-05-09T07:29:01.794Z,43.14
2024-05-09T07:31:34.758Z,45.11
2024-05-09T07:34:02.261Z,41.61
2024-05-09T07:36:32.868Z,42.20
2024-05-09T07:39:03.187Z,42.08
2024-05-09T07:41:33.265Z,40.75
2024-05-09T07:44:00.979Z,41.35
2024-05-09T07:47:37.146Z,42.45
2024-05-09T07:53:21.792Z,41.69
2024-05-09T07:54:47.888Z,40.15
2024-05-09T07:57:18.131Z,39.74
2024-05-09T07:59:47.707Z,41.08
2024-05-09T08:02:18.222Z,40.25
2024-05-09T08:04:51.585Z,39.40
2024-05-09T08:07:24.818Z,39.07
2024-05-09T08:09:53.011Z,40.23
2024-05-09T08:12:22.991Z,39.82
2024-05-09T08:14:53.160Z,37.35
2024-05-09T08:17:23.605Z,38.79
2024-05-09T08:19:53.688Z,39.44
2024-05-09T08:22:23.688Z,38.55
2024-05-09T08:24:54.690Z,39.89
2024-05-09T08:27:28.494Z,38.14
2024-05-09T08:29:56.744Z,36.88
2024-05-09T08:32:28.391Z,38.55
2024-05-09T08:35:05.433Z,38.65
2024-05-09T08:37:37.793Z,39.97
2024-05-09T08:40:23.467Z,38.39
2024-05-09T08:42:57.530Z,39.94
2024-05-09T08:45:28.622Z,40.04
2024-05-09T08:47:59.837Z,39.46
2024-05-09T08:50:38.793Z,39.11
2024-05-09T08:53:10.851Z,38.37
2024-05-09T08:55:43.478Z,39.42
2024-05-09T08:58:16.176Z,37.26
2024-05-09T09:00:49.499Z,39.59
2024-05-09T09:03:19.705Z,38.32
2024-05-09T09:06:02.438Z,39.42
2024-05-09T09:08:29.826Z,38.89
2024-05-09T09:11:01.860Z,36.28
2024-05-09T09:13:29.486Z,37.57
2024-05-09T09:16:01.279Z,37.32
2024-05-09T09:18:30.494Z,36.79
2024-05-09T09:21:07.461Z,38.83
2024-05-09T09:23:35.088Z,37.03
2024-05-09T09:26:05.496Z,38.50
2024-05-09T09:28:36.835Z,36.47
2024-05-09T09:31:07.330Z,35.04
2024-05-09T09:33:36.302Z,36.73
2024-05-09T09:36:15.702Z,35.24
2024-05-09T09:38:43.954Z,35.05
2024-05-09T09:41:16.430Z,33.87
2024-05-09T09:43:45.812Z,32.20
2024-05-09T09:46:17.771Z,32.89
2024-05-09T09:48:46.798Z,33.65
2024-05-09T09:51:19.760Z,35.36
2024-05-09T09:53:49.230Z,35.66
2024-05-09T09:56:21.547Z,34.87
2024-05-09T09:58:50.110Z,33.21
2024-05-09T10:01:20.216Z,32.73
2024-05-09T10:03:47.975Z,33.38
2024-05-09T10:06:21.900Z,32.68
2024-05-09T10:08:52.510Z,32.39
2024-05-09T10:11:24.531Z,32.74
2024-05-09T10:13:55.099Z,32.99
2024-05-09T10:16:22.579Z,34.53
2024-05-09T10:18:52.836Z,32.45
2024-05-09T10:21:23.710Z,31.34
2024-05-09T10:24:00.859Z,31.22
2024-05-09T10:26:33.064Z,31.52
2024-05-09T10:29:03.572Z,29.67
2024-05-09T10:31:31.097Z,29.50
2024-05-09T10:34:03.594Z,30.45
2024-05-09T10:36:33.782Z,30.67
2024-05-09T10:39:03.696Z,30.69
2024-05-09T10:41:30.862Z,29.76
2024-05-09T10:44:00.710Z,31.68
2024-05-09T10:46:29.027Z,30.20
2024-05-09T10:49:05.324Z,30.66
2024-05-09T10:51:37.507Z,29.07
2024-05-09T10:54:07.897Z,30.47
2024-05-09T10:56:35.178Z,31.02
2024-05-09T10:59:06.349Z,30.32
2024-05-09T11:01:33.677Z,30.65
2024-05-09T11:04:04.319Z,31.41
2024-05-09T11:06:31.952Z,32.66
2024-05-09T11:09:06.492Z,32.62
2024-05-09T11:11:34.194Z,31.23
2024-05-09T11:14:17.747Z,30.96
2024-05-09T11:16:44.815Z,27.63
2024-05-09T11:19:18.833Z,28.94
2024-05-09T11:21:51.523Z,30.64
2024-05-09T11:24:27.997Z,28.90
2024-05-09T11:26:57.420Z,28.27
2024-05-09T11:29:38.942Z,29.11
2024-05-09T11:32:08.184Z,29.53
2024-05-09T11:34:43.123Z,30.53
2024-05-09T11:37:11.087Z,30.27
2024-05-09T11:39:44.856Z,31.33
2024-05-09T11:42:12.306Z,33.47
2024-05-09T11:44:42.258Z,31.18
2024-05-09T11:47:09.706Z,32.99
2024-05-09T11:50:26.740Z,30.34
2024-05-09T11:52:57.974Z,30.02
2024-05-09T11:55:47.725Z,30.27
2024-05-09T11:58:23.159Z,27.52
2024-05-09T12:00:52.451Z,29.59
2024-05-09T12:03:26.851Z,30.42
2024-05-09T12:05:54.366Z,28.65
2024-05-09T12:08:24.319Z,28.83
2024-05-09T12:10:54.486Z,32.13
2024-05-09T12:13:24.861Z,30.59
2024-05-09T12:15:52.347Z,29.38
2024-05-09T12:18:22.187Z,29.62
2024-05-09T12:20:49.415Z,30.74
2024-05-09T12:23:19.233Z,31.72
2024-05-09T12:25:46.409Z,31.16
2024-05-09T12:28:19.094Z,30.53
2024-05-09T12:30:46.413Z,32.80
2024-05-09T12:33:16.653Z,32.02
2024-05-09T12:35:46.518Z,33.76
2024-05-09T12:38:18.063Z,33.64
2024-05-09T12:40:45.341Z,34.32
2024-05-09T12:43:15.220Z,32.65
2024-05-09T12:45:45.147Z,30.94
2024-05-09T12:48:15.137Z,32.06
2024-05-09T12:50:42.538Z,33.64
2024-05-09T12:53:12.336Z,36.25
2024-05-09T12:55:48.133Z,34.84
2024-05-09T12:58:24.589Z,34.99
2024-05-09T13:00:54.638Z,35.33
2024-05-09T13:03:24.647Z,36.02
2024-05-09T13:05:52.369Z,34.78
2024-05-09T13:08:22.901Z,32.35
2024-05-09T13:10:50.468Z,32.44
2024-05-09T13:13:20.388Z,32.21
2024-05-09T13:15:47.724Z,32.21
2024-05-09T13:18:20.347Z,31.51
2024-05-09T13:20:47.582Z,32.85
2024-05-09T13:23:17.382Z,31.40
2024-05-09T13:25:44.609Z,32.21
2024-05-09T13:28:14.573Z,31.65
2024-05-09T13:30:42.465Z,32.67
2024-05-09T13:33:13.678Z,33.79
2024-05-09T13:35:48.584Z,32.63
2024-05-09T13:38:22.022Z,33.87
2024-05-09T13:40:50.615Z,35.11
2024-05-09T13:43:22.005Z,35.20
2024-05-09T13:45:49.913Z,35.44
2024-05-09T13:48:19.992Z,35.51
2024-05-09T13:50:50.234Z,37.16
2024-05-09T13:53:20.026Z,36.88
2024-05-09T13:55:47.475Z,34.81
2024-05-09T13:58:17.862Z,36.07
2024-05-09T14:00:48.840Z,35.67
2024-05-09T14:03:20.782Z,35.02
2024-05-09T14:05:52.163Z,36.40
2024-05-09T14:08:22.830Z,37.06
2024-05-09T14:10:51.350Z,36.61
2024-05-09T14:13:21.368Z,36.02
2024-05-09T14:15:49.372Z,34.41
2024-05-09T14:18:19.708Z,34.34
2024-05-09T14:20:46.964Z,35.22
2024-05-09T14:23:20.702Z,34.15
2024-05-09T14:25:51.763Z,34.92
2024-05-09T14:28:22.715Z,33.49
2024-05-09T14:30:51.076Z,32.86
2024-05-09T14:33:26.689Z,34.69
2024-05-09T14:35:54.478Z,31.48
2024-05-09T14:38:27.579Z,32.01
2024-05-09T14:40:54.921Z,32.53
2024-05-09T14:43:25.796Z,33.51
2024-05-09T14:45:53.713Z,34.51
2024-05-09T14:48:23.666Z,34.75
2024-05-09T14:50:50.965Z,35.07
2024-05-09T14:53:20.740Z,37.54
2024-05-09T14:55:50.723Z,37.58
2024-05-09T14:58:20.830Z,39.33
2024-05-09T15:00:50.918Z,38.68
2024-05-09T15:03:22.375Z,38.45
2024-05-09T15:05:51.101Z,39.01
2024-05-09T15:08:22.264Z,40.39
2024-05-09T15:10:52.707Z,39.61
2024-05-09T15:13:23.956Z,40.20
2024-05-09T15:15:51.584Z,38.63
2024-05-09T15:18:21.693Z,38.94
2024-05-09T15:20:49.158Z,39.68
2024-05-09T15:23:19.146Z,39.92
2024-05-09T15:25:46.535Z,39.49
2024-05-09T15:28:19.030Z,41.08
2024-05-09T15:30:47.033Z,39.52
2024-05-09T15:33:17.572Z,40.38
2024-05-09T15:35:46.727Z,40.37
2024-05-09T15:38:18.523Z,40.36
2024-05-09T15:40:46.114Z,40.42
2024-05-09T15:43:18.768Z,40.27
2024-05-09T15:45:46.072Z,39.58
2024-05-09T15:48:16.231Z,39.44
2024-05-09T15:50:43.678Z,39.82
2024-05-09T15:53:14.431Z,39.18
2024-05-09T15:55:42.175Z,38.98
2024-05-09T15:58:12.695Z,38.89
2024-05-09T16:00:44.814Z,39.73
2024-05-09T16:03:16.160Z,39.00
2024-05-09T16:05:44.747Z,40.24
2024-05-09T16:08:15.599Z,39.11
2024-05-09T16:10:46.105Z,39.00
2024-05-09T16:13:17.892Z,40.63
2024-05-09T16:15:48.240Z,40.92
2024-05-09T16:18:19.742Z,40.87
2024-05-09T16:20:49.479Z,40.50
2024-05-09T16:23:20.398Z,39.43
2024-05-09T16:25:48.473Z,39.41
2024-05-09T16:28:19.391Z,39.31
2024-05-09T16:30:50.286Z,38.63
2024-05-09T16:33:23.874Z,38.71
2024-05-09T16:35:51.327Z,38.80
2024-05-09T16:38:21.559Z,37.60
2024-05-09T16:40:48.943Z,38.37
2024-05-09T16:43:19.123Z,37.68
2024-05-09T16:45:46.537Z,38.13
2024-05-09T16:48:19.143Z,37.55
2024-05-09T16:50:46.368Z,37.25
2024-05-09T16:53:16.400Z,36.99
2024-05-09T16:55:43.625Z,37.14
2024-05-09T16:58:14.388Z,37.68
2024-05-09T17:00:43.632Z,37.37
2024-05-09T17:03:16.524Z,38.68
2024-05-09T17:05:47.664Z,36.89
2024-05-09T17:08:20.003Z,37.92
2024-05-09T17:10:49.214Z,38.12
2024-05-09T17:13:20.228Z,38.82
2024-05-09T17:15:50.706Z,38.24
2024-05-09T17:18:21.055Z,39.07
2024-05-09T17:20:54.683Z,40.29
2024-05-09T17:23:22.105Z,40.26
2024-05-09T17:25:51.902Z,40.79
2024-05-09T17:28:19.520Z,40.30
2024-05-09T17:30:49.667Z,40.93
2024-05-09T17:33:17.046Z,40.54
2024-05-09T17:35:50.751Z,41.27
2024-05-09T17:38:23.371Z,43.03
2024-05-09T17:40:54.795Z,43.32
2024-05-09T17:43:23.177Z,41.57
2024-05-09T17:45:53.109Z,42.35
2024-05-09T17:48:20.582Z,43.50
2024-05-09T17:50:51.554Z,43.81
2024-05-09T17:53:21.600Z,45.37
2024-05-09T17:55:53.978Z,47.56
2024-05-09T17:58:21.500Z,46.73
2024-05-09T18:00:51.528Z,46.39
2024-05-09T18:03:18.777Z,46.28
2024-05-09T18:05:48.729Z,49.35
2024-05-09T18:08:15.947Z,50.79
2024-05-09T18:10:48.379Z,52.00
2024-05-09T18:13:15.682Z,54.88
2024-05-09T18:15:45.702Z,56.83
2024-05-09T18:18:14.082Z,56.25
2024-05-09T18:20:45.936Z,57.53
2024-05-09T18:23:16.040Z,59.12
2024-05-09T18:25:54.539Z,59.78
2024-05-09T18:28:22.354Z,60.19
2024-05-09T18:30:52.447Z,59.00
2024-05-09T18:33:20.618Z,58.38
2024-05-09T18:35:50.674Z,60.79
2024-05-09T18:38:18.602Z,61.35
2024-05-09T18:40:51.092Z,61.23
2024-05-09T18:43:20.227Z,61.16
2024-05-09T18:45:53.763Z,62.05
2024-05-09T18:48:22.117Z,63.30
2024-05-09T18:50:52.300Z,61.55
2024-05-09T18:53:19.582Z,59.33
2024-05-09T18:55:52.071Z,54.47
2024-05-09T18:58:20.563Z,52.02
2024-05-09T19:00:53.020Z,50.27
2024-05-09T19:03:22.097Z,49.47
2024-05-09T19:05:52.252Z,47.93
2024-05-09T19:08:19.526Z,48.13
2024-05-09T19:10:52.659Z,47.47
2024-05-09T19:13:19.998Z,46.58
2024-05-09T19:15:49.806Z,46.59
2024-05-09T19:18:17.449Z,46.05
2024-05-09T19:20:47.412Z,46.83
2024-05-09T19:23:14.657Z,46.81
2024-05-09T19:25:44.451Z,46.53
2024-05-09T19:28:14.385Z,46.83
2024-05-09T19:30:44.422Z,47.52
2024-05-09T19:33:13.235Z,47.06
2024-05-09T19:35:44.367Z,47.38
2024-05-09T19:38:12.249Z,47.95
2024-05-09T19:40:42.126Z,47.66
2024-05-09T19:43:09.996Z,48.23
2024-05-09T19:45:43.706Z,48.88
2024-05-09T19:48:11.230Z,48.58
2024-05-09T19:50:44.058Z,48.76
2024-05-09T19:53:12.610Z,49.06
2024-05-09T19:55:43.027Z,51.01
2024-05-09T19:58:11.390Z,50.12
2024-05-09T20:00:45.043Z,50.27
2024-05-09T20:03:14.353Z,50.57
2024-05-09T20:05:45.846Z,51.54
2024-05-09T20:08:13.770Z,51.96
2024-05-09T20:10:43.767Z,51.32
2024-05-09T20:13:11.175Z,51.96
2024-05-09T20:15:41.155Z,53.84
2024-05-09T20:18:11.337Z,57.55
2024-05-09T20:20:43.629Z,57.94
2024-05-09T20:23:12.925Z,56.25
2024-05-09T20:25:43.001Z,54.51
2024-05-09T20:28:10.771Z,54.37
2024-05-09T20:30:41.111Z,56.05
2024-05-09T20:33:12.690Z,56.21
2024-05-09T20:35:42.673Z,60.80
2024-05-09T20:38:10.052Z,60.40
2024-05-09T20:40:41.189Z,59.05
2024-05-09T20:43:09.662Z,63.57
2024-05-09T20:45:40.681Z,60.60
2024-05-09T20:48:11.919Z,57.14
2024-05-09T20:50:42.777Z,60.14
2024-05-09T20:53:12.708Z,61.32
2024-05-09T20:55:45.922Z,63.11
2024-05-09T20:58:14.141Z,61.82
2024-05-09T21:00:45.979Z,59.91
2024-05-09T21:03:17.823Z,62.28
2024-05-09T21:05:49.402Z,62.04
2024-05-09T21:08:17.201Z,63.46
2024-05-09T21:10:47.783Z,62.99
2024-05-09T21:13:18.988Z,62.81
2024-05-09T21:15:46.692Z,64.56
2024-05-09T21:18:19.357Z,63.59
2024-05-09T21:20:46.531Z,63.96
2024-05-09T21:23:16.608Z,63.07
2024-05-09T21:25:44.042Z,63.65
2024-05-09T21:28:14.915Z,64.76
2024-05-09T21:30:43.410Z,63.74
2024-05-09T21:33:15.146Z,64.04
2024-05-09T21:35:45.898Z,64.41
2024-05-09T21:38:18.440Z,63.34
2024-05-09T21:40:47.587Z,63.14
2024-05-09T21:43:17.782Z,62.73
2024-05-09T21:45:45.277Z,63.39
2024-05-09T21:48:16.006Z,64.70
2024-05-09T21:50:46.006Z,63.93
2024-05-09T21:53:15.925Z,65.67
2024-05-09T21:55:43.404Z,64.26
2024-05-09T21:58:14.480Z,65.64
2024-05-09T22:00:45.505Z,65.24
2024-05-09T22:03:15.665Z,65.42
2024-05-09T22:05:45.705Z,65.27
2024-05-09T22:08:15.868Z,67.32
2024-05-09T22:10:43.173Z,65.32
2024-05-09T22:13:13.509Z,64.61
2024-05-09T22:15:41.108Z,64.42
2024-05-09T22:18:12.167Z,66.27
2024-05-09T22:20:45.167Z,67.65
2024-05-09T22:23:18.730Z,67.37
2024-05-09T22:25:45.927Z,67.24
2024-05-09T22:28:17.497Z,66.45
2024-05-09T22:30:46.512Z,66.85
2024-05-09T22:33:17.638Z,65.95
2024-05-09T22:35:45.327Z,64.98
2024-05-09T22:38:15.249Z,64.90
2024-05-09T22:40:48.567Z,64.65
2024-05-09T22:43:24.843Z,64.01
2024-05-09T22:45:53.205Z,64.40
2024-05-09T22:48:23.818Z,63.25
2024-05-09T22:50:51.657Z,62.58
2024-05-09T22:53:21.448Z,62.61
2024-05-09T22:55:51.458Z,62.44
2024-05-09T22:58:22.676Z,62.10
2024-05-09T23:00:50.248Z,62.00
2024-05-09T23:03:21.810Z,62.59
2024-05-09T23:05:49.711Z,62.49
2024-05-09T23:08:19.564Z,61.59
2024-05-09T23:10:46.895Z,61.37
2024-05-09T23:13:19.613Z,61.40
2024-05-09T23:15:47.045Z,61.80
2024-05-09T23:18:16.891Z,60.61
2024-05-09T23:20:44.073Z,60.90
2024-05-09T23:23:13.898Z,61.27
2024-05-09T23:25:42.118Z,60.83
2024-05-09T23:28:12.585Z,60.67
2024-05-09T23:30:42.786Z,60.48
2024-05-09T23:33:14.590Z,60.00
2024-05-09T23:35:43.505Z,59.61
2024-05-09T23:38:13.702Z,60.05
2024-05-09T23:40:42.329Z,60.26
2024-05-09T23:43:13.727Z,60.48
2024-05-09T23:45:46.482Z,60.27
2024-05-09T23:48:13.929Z,60.12
2024-05-09T23:50:43.995Z,59.73
2024-05-09T23:53:11.481Z,60.70
2024-05-09T23:55:41.413Z,59.99
2024-05-09T23:58:08.796Z,60.20
